createdAt,value
2022-07-30T00:02:03.911Z,101472.06
2022-07-30T00:04:33.848Z,101465.97
2022-07-30T00:07:04.685Z,101469.78
2022-07-30T00:09:36.241Z,101461.81
2022-07-30T00:12:08.433Z,101473.75
2022-07-30T00:14:38.400Z,101469.03
2022-07-30T00:17:07.700Z,101466.59
2022-07-30T00:19:36.886Z,101466.97
2022-07-30T00:22:05.804Z,101464.78
2022-07-30T00:24:34.727Z,101459.66
2022-07-30T00:27:05.647Z,101457.81
2022-07-30T00:29:34.581Z,101456.34
2022-07-30T00:32:04.020Z,101454.66
2022-07-30T00:34:33.294Z,101447.13
2022-07-30T00:37:02.693Z,101446.56
2022-07-30T00:39:32.303Z,101438.56
2022-07-30T00:42:03.555Z,101438.56
2022-07-30T00:44:33.773Z,101439.56
2022-07-30T00:47:04.782Z,101443.66
2022-07-30T00:49:33.699Z,101436.09
2022-07-30T00:52:02.856Z,101438.72
2022-07-30T00:54:31.785Z,101433.25
2022-07-30T00:57:00.852Z,101440.97
2022-07-30T00:59:29.685Z,101435.34
2022-07-30T01:02:03.694Z,101439.81
2022-07-30T01:04:32.825Z,101430.91
2022-07-30T01:07:04.060Z,101435.38
2022-07-30T01:09:33.045Z,101427.66
2022-07-30T01:12:03.321Z,101425.22
2022-07-30T01:14:32.581Z,101422.38
2022-07-30T01:17:03.927Z,101415.38
2022-07-30T01:19:52.557Z,101418.59
2022-07-30T01:22:38.688Z,101410.34
2022-07-30T01:25:18.815Z,101409.75
2022-07-30T01:27:54.936Z,101408.81
2022-07-30T01:30:29.717Z,101402.41
2022-07-30T01:33:05.128Z,101405.75
2022-07-30T01:35:37.016Z,101412.03
2022-07-30T01:38:10.102Z,101410.13
2022-07-30T01:40:42.489Z,101409.50
2022-07-30T01:43:15.487Z,101405.47
2022-07-30T01:45:46.254Z,101406.69
2022-07-30T01:48:19.788Z,101412.09
2022-07-30T01:50:52.385Z,101405.09
2022-07-30T01:53:28.820Z,101403.63
2022-07-30T01:56:01.743Z,101398.75
2022-07-30T01:58:39.882Z,101407.81
2022-07-30T02:01:11.471Z,101401.56
2022-07-30T02:03:41.302Z,101398.13
2022-07-30T02:06:19.855Z,101398.25
2022-07-30T02:08:57.890Z,101398.38
2022-07-30T02:11:45.181Z,101401.06
2022-07-30T02:14:25.174Z,101397.00
2022-07-30T02:16:59.759Z,101395.78
2022-07-30T02:19:42.039Z,101394.66
2022-07-30T02:22:17.906Z,101394.91
2022-07-30T02:24:51.473Z,101400.53
2022-07-30T02:27:27.850Z,101396.63
2022-07-30T02:30:01.798Z,101397.59
2022-07-30T02:32:38.974Z,101396.38
2022-07-30T02:35:15.758Z,101402.75
2022-07-30T02:37:49.735Z,101398.22
2022-07-30T02:40:22.856Z,101406.19
2022-07-30T02:42:55.116Z,101405.22
2022-07-30T02:45:29.079Z,101414.53
2022-07-30T02:48:05.289Z,101412.31
2022-07-30T02:50:38.633Z,101407.31
2022-07-30T02:53:13.325Z,101409.53
2022-07-30T02:55:45.174Z,101415.91
2022-07-30T02:58:23.622Z,101417.84
2022-07-30T03:00:57.502Z,101413.44
2022-07-30T03:03:30.303Z,101416.28
2022-07-30T03:06:00.979Z,101412.59
2022-07-30T03:08:33.073Z,101413.69
2022-07-30T03:11:04.558Z,101416.63
2022-07-30T03:13:35.502Z,101419.09
2022-07-30T03:16:11.194Z,101425.34
2022-07-30T03:18:43.940Z,101429.59
2022-07-30T03:21:18.528Z,101422.03
2022-07-30T03:23:51.135Z,101429.47
2022-07-30T03:26:28.842Z,101426.94
2022-07-30T03:28:59.628Z,101423.00
2022-07-30T03:31:36.074Z,101431.31
2022-07-30T03:34:07.176Z,101431.59
2022-07-30T03:36:37.812Z,101436.72
2022-07-30T03:39:09.952Z,101430.13
2022-07-30T03:41:40.828Z,101430.97
2022-07-30T03:44:11.408Z,101425.22
2022-07-30T03:46:43.891Z,101438.06
2022-07-30T03:49:14.188Z,101425.44
2022-07-30T03:51:43.810Z,101432.88
2022-07-30T03:54:14.409Z,101430.41
2022-07-30T03:56:44.125Z,101432.38
2022-07-30T03:59:15.695Z,101434.31
2022-07-30T04:01:46.405Z,101430.41
2022-07-30T04:04:15.488Z,101434.44
2022-07-30T04:06:44.575Z,101433.06
2022-07-30T04:09:16.898Z,101432.28
2022-07-30T04:11:45.641Z,101440.31
2022-07-30T04:14:15.738Z,101434.91
2022-07-30T04:16:53.263Z,101447.19
2022-07-30T04:19:28.016Z,101438.66
2022-07-30T04:22:00.049Z,101443.53
2022-07-30T04:24:35.285Z,101443.47
2022-07-30T04:27:05.295Z,101445.38
2022-07-30T04:29:34.974Z,101435.59
2022-07-30T04:32:07.621Z,101445.50
2022-07-30T04:34:37.009Z,101434.88
2022-07-30T04:37:06.093Z,101428.66
2022-07-30T04:39:35.541Z,101432.25
2022-07-30T04:42:05.248Z,101431.75
2022-07-30T04:44:34.859Z,101431.50
2022-07-30T04:47:06.224Z,101424.25
2022-07-30T04:49:36.271Z,101429.53
2022-07-30T04:52:07.681Z,101421.56
2022-07-30T04:54:45.414Z,101413.56
2022-07-30T04:57:18.071Z,101422.16
2022-07-30T04:59:49.799Z,101416.44
2022-07-30T05:02:24.083Z,101409.72
2022-07-30T05:04:56.028Z,101413.59
2022-07-30T05:07:28.855Z,101409.88
2022-07-30T05:09:57.945Z,101409.34
2022-07-30T05:12:35.148Z,101414.50
2022-07-30T05:15:04.280Z,101405.19
2022-07-30T05:17:35.127Z,101412.34
2022-07-30T05:20:05.999Z,101411.03
2022-07-30T05:22:37.779Z,101411.59
2022-07-30T05:25:15.776Z,101412.16
2022-07-30T05:27:45.649Z,101410.69
2022-07-30T05:30:14.939Z,101418.34
2022-07-30T05:32:46.454Z,101416.06
2022-07-30T05:35:16.418Z,101412.91
2022-07-30T05:37:45.276Z,101410.25
2022-07-30T05:40:15.340Z,101401.09
2022-07-30T05:42:44.931Z,101406.75
2022-07-30T05:45:13.953Z,101415.31
2022-07-30T05:47:45.603Z,101416.78
2022-07-30T05:50:14.398Z,101418.81
2022-07-30T05:52:43.319Z,101422.94
2022-07-30T05:55:12.870Z,101430.47
2022-07-30T05:57:42.554Z,101420.16
2022-07-30T06:00:14.915Z,101422.34
2022-07-30T06:02:45.482Z,101424.91
2022-07-30T06:05:14.423Z,101426.16
2022-07-30T06:07:43.194Z,101418.78
2022-07-30T06:10:12.216Z,101423.53
2022-07-30T06:12:42.740Z,101421.22
2022-07-30T06:15:12.438Z,101422.19
2022-07-30T06:17:51.044Z,101418.06
2022-07-30T06:20:28.659Z,101415.56
2022-07-30T06:22:58.164Z,101414.81
2022-07-30T06:25:27.128Z,101428.44
2022-07-30T06:27:56.241Z,101423.63
2022-07-30T06:30:31.216Z,101426.13
2022-07-30T06:33:01.819Z,101419.66
2022-07-30T06:35:30.858Z,101428.66
2022-07-30T06:38:07.244Z,101422.19
2022-07-30T06:40:37.112Z,101424.25
2022-07-30T06:43:06.339Z,101427.06
2022-07-30T06:45:35.470Z,101428.50
2022-07-30T06:48:08.035Z,101428.19
2022-07-30T06:50:38.898Z,101425.03
2022-07-30T06:53:08.025Z,101434.09
2022-07-30T06:55:37.157Z,101431.25
2022-07-30T06:58:05.859Z,101426.59
2022-07-30T07:00:34.858Z,101433.84
2022-07-30T07:03:08.749Z,101430.03
2022-07-30T07:05:44.860Z,101432.78
2022-07-30T07:08:13.859Z,101427.16
2022-07-30T07:10:42.499Z,101427.69
2022-07-30T07:13:12.130Z,101433.50
2022-07-30T07:15:41.042Z,101426.84
2022-07-30T07:18:13.216Z,101423.59
2022-07-30T07:20:46.455Z,101417.13
2022-07-30T07:23:15.693Z,101428.00
2022-07-30T07:25:52.129Z,101426.97
2022-07-30T07:28:21.226Z,101419.78
2022-07-30T07:30:50.507Z,101417.94
2022-07-30T07:33:20.756Z,101414.34
2022-07-30T07:35:50.359Z,101418.94
2022-07-30T07:38:19.832Z,101427.91
2022-07-30T07:40:49.139Z,101421.19
2022-07-30T07:43:18.359Z,101421.09
2022-07-30T07:45:47.818Z,101420.66
2022-07-30T07:48:17.218Z,101420.78
2022-07-30T07:50:47.783Z,101411.25
2022-07-30T07:53:16.574Z,101423.47
2022-07-30T07:55:45.713Z,101417.69
2022-07-30T07:58:17.555Z,101416.00
2022-07-30T08:00:55.077Z,101415.69
2022-07-30T08:03:24.319Z,101414.81
2022-07-30T08:06:02.071Z,101413.50
2022-07-30T08:08:37.362Z,101416.75
2022-07-30T08:11:07.805Z,101411.91
2022-07-30T08:13:52.349Z,101413.88
2022-07-30T08:16:22.545Z,101406.84
2022-07-30T08:18:51.724Z,101411.19
2022-07-30T08:21:22.627Z,101407.47
2022-07-30T08:23:51.797Z,101410.03
2022-07-30T08:26:20.663Z,101401.22
2022-07-30T08:28:49.783Z,101406.66
2022-07-30T08:31:22.647Z,101408.81
2022-07-30T08:33:51.490Z,101408.38
2022-07-30T08:36:25.768Z,101409.53
2022-07-30T08:38:55.579Z,101401.47
2022-07-30T08:41:26.074Z,101412.13
2022-07-30T08:44:00.347Z,101400.13
2022-07-30T08:46:37.484Z,101400.06
2022-07-30T08:49:11.161Z,101403.00
2022-07-30T08:51:41.805Z,101401.66
2022-07-30T08:54:12.291Z,101404.69
2022-07-30T08:56:41.213Z,101388.16
2022-07-30T08:59:10.393Z,101391.59
2022-07-30T09:01:40.205Z,101397.50
2022-07-30T09:04:09.299Z,101393.34
2022-07-30T09:06:38.387Z,101391.94
2022-07-30T09:09:12.486Z,101398.25
2022-07-30T09:11:44.333Z,101400.13
2022-07-30T09:14:15.682Z,101401.06
2022-07-30T09:16:46.598Z,101389.25
2022-07-30T09:19:19.069Z,101399.19
2022-07-30T09:21:58.772Z,101406.81
2022-07-30T09:24:30.413Z,101409.78
2022-07-30T09:27:05.770Z,101409.63
2022-07-30T09:29:36.428Z,101400.59
2022-07-30T09:32:08.221Z,101407.78
2022-07-30T09:34:40.547Z,101396.63
2022-07-30T09:37:23.089Z,101402.75
2022-07-30T09:39:59.712Z,101401.63
2022-07-30T09:42:32.152Z,101398.78
2022-07-30T09:45:09.942Z,101400.03
2022-07-30T09:47:48.577Z,101400.41
2022-07-30T09:50:30.373Z,101397.25
2022-07-30T09:53:12.131Z,101394.38
2022-07-30T09:55:46.566Z,101409.47
2022-07-30T09:58:19.973Z,101398.84
2022-07-30T10:01:00.582Z,101398.59
2022-07-30T10:03:33.882Z,101402.63
2022-07-30T10:06:08.086Z,101402.03
2022-07-30T10:08:46.390Z,101401.72
2022-07-30T10:11:23.628Z,101398.31
2022-07-30T10:13:59.488Z,101401.16
2022-07-30T10:16:31.135Z,101397.22
2022-07-30T10:19:01.468Z,101388.41
2022-07-30T10:21:32.606Z,101394.00
2022-07-30T10:24:08.276Z,101392.94
2022-07-30T10:26:42.157Z,101406.97
2022-07-30T10:29:12.983Z,101402.56
2022-07-30T10:31:54.349Z,101398.00
2022-07-30T10:34:26.568Z,101408.06
2022-07-30T10:37:04.880Z,101391.31
2022-07-30T10:39:47.614Z,101398.16
2022-07-30T10:42:57.320Z,101392.00
2022-07-30T10:45:43.766Z,101390.06
2022-07-30T10:48:17.614Z,101392.06
2022-07-30T10:50:56.768Z,101397.44
2022-07-30T10:53:38.142Z,101389.50
2022-07-30T10:56:25.429Z,101384.09
2022-07-30T10:59:08.667Z,101391.31
2022-07-30T11:02:12.348Z,101386.44
2022-07-30T11:04:41.457Z,101391.00
2022-07-30T11:07:31.872Z,101398.13
2022-07-30T11:10:05.265Z,101395.50
2022-07-30T11:12:57.813Z,101392.44
2022-07-30T11:15:56.938Z,101396.16
2022-07-30T11:18:28.999Z,101391.09
2022-07-30T11:21:21.200Z,101391.16
2022-07-30T11:23:54.802Z,101393.84
2022-07-30T11:26:52.253Z,101385.97
2022-07-30T11:29:50.815Z,101385.41
2022-07-30T11:32:32.353Z,101388.13
2022-07-30T11:35:23.049Z,101388.72
2022-07-30T11:38:19.020Z,101381.22
2022-07-30T11:41:12.425Z,101379.44
2022-07-30T11:43:42.839Z,101380.63
2022-07-30T11:46:28.542Z,101379.41
2022-07-30T11:49:05.337Z,101372.09
2022-07-30T11:51:42.927Z,101374.81
2022-07-30T11:54:12.783Z,101383.19
2022-07-30T11:56:55.338Z,101378.91
2022-07-30T11:59:24.471Z,101380.41
2022-07-30T12:01:57.103Z,101385.78
2022-07-30T12:04:28.070Z,101378.03
2022-07-30T12:06:57.673Z,101385.63
2022-07-30T12:09:29.654Z,101374.75
2022-07-30T12:11:58.972Z,101375.06
2022-07-30T12:14:39.485Z,101374.91
2022-07-30T12:17:15.270Z,101375.72
2022-07-30T12:19:51.860Z,101370.97
2022-07-30T12:22:21.050Z,101374.78
2022-07-30T12:24:50.235Z,101373.59
2022-07-30T12:27:19.719Z,101380.91
2022-07-30T12:29:52.951Z,101368.44
2022-07-30T12:32:32.089Z,101377.50
2022-07-30T12:35:02.340Z,101366.19
2022-07-30T12:37:31.460Z,101380.13
2022-07-30T12:40:15.644Z,101383.59
2022-07-30T12:42:52.865Z,101383.25
2022-07-30T12:45:51.865Z,101379.53
2022-07-30T12:48:20.953Z,101368.13
2022-07-30T12:51:07.261Z,101367.63
2022-07-30T12:53:37.347Z,101361.81
2022-07-30T12:56:14.432Z,101365.28
2022-07-30T12:58:43.704Z,101355.78
2022-07-30T13:01:16.161Z,101359.41
2022-07-30T13:03:46.992Z,101360.63
2022-07-30T13:06:27.014Z,101349.91
2022-07-30T13:08:59.200Z,101352.75
2022-07-30T13:11:41.346Z,101357.97
2022-07-30T13:14:12.878Z,101351.50
2022-07-30T13:16:43.120Z,101345.03
2022-07-30T13:19:14.437Z,101350.69
2022-07-30T13:21:49.399Z,101343.44
2022-07-30T13:24:20.104Z,101350.56
2022-07-30T13:27:01.177Z,101348.63
2022-07-30T13:29:31.565Z,101343.00
2022-07-30T13:32:01.324Z,101340.44
2022-07-30T13:34:32.717Z,101347.38
2022-07-30T13:37:03.261Z,101338.19
2022-07-30T13:39:33.250Z,101339.38
2022-07-30T13:42:02.323Z,101338.34
2022-07-30T13:44:31.803Z,101349.72
2022-07-30T13:47:02.038Z,101333.47
2022-07-30T13:49:31.921Z,101336.44
2022-07-30T13:52:02.741Z,101334.94
2022-07-30T13:54:31.925Z,101330.97
2022-07-30T13:57:02.292Z,101327.19
2022-07-30T13:59:31.228Z,101329.75
2022-07-30T14:02:03.370Z,101315.41
2022-07-30T14:04:35.065Z,101314.66
2022-07-30T14:07:07.196Z,101316.91
2022-07-30T14:09:46.865Z,101322.78
2022-07-30T14:12:16.325Z,101323.34
2022-07-30T14:14:55.293Z,101313.84
2022-07-30T14:17:24.598Z,101307.06
2022-07-30T14:19:54.618Z,101310.84
2022-07-30T14:22:28.377Z,101312.44
2022-07-30T14:24:57.744Z,101312.59
2022-07-30T14:27:26.511Z,101306.66
2022-07-30T14:29:55.402Z,101317.16
2022-07-30T14:32:25.400Z,101309.66
2022-07-30T14:34:56.101Z,101311.34
2022-07-30T14:37:29.929Z,101308.50
2022-07-30T14:39:58.804Z,101307.03
2022-07-30T14:42:27.896Z,101307.47
2022-07-30T14:44:58.044Z,101301.47
2022-07-30T14:47:27.366Z,101309.31
2022-07-30T14:49:56.102Z,101308.28
2022-07-30T14:52:25.364Z,101311.31
2022-07-30T14:54:55.763Z,101304.88
2022-07-30T14:57:24.810Z,101302.84
2022-07-30T14:59:53.837Z,101311.97
2022-07-30T15:02:23.578Z,101298.72
2022-07-30T15:04:52.722Z,101297.59
2022-07-30T15:07:21.651Z,101296.34
2022-07-30T15:09:50.532Z,101299.19
2022-07-30T15:12:26.915Z,101300.31
2022-07-30T15:14:56.617Z,101292.88
2022-07-30T15:17:26.617Z,101299.66
2022-07-30T15:19:55.864Z,101304.59
2022-07-30T15:22:24.898Z,101292.03
2022-07-30T15:24:53.819Z,101293.72
2022-07-30T15:27:33.198Z,101296.41
2022-07-30T15:30:05.304Z,101296.94
2022-07-30T15:32:35.168Z,101303.75
2022-07-30T15:35:04.094Z,101296.31
2022-07-30T15:37:33.127Z,101301.34
2022-07-30T15:40:02.941Z,101303.94
2022-07-30T15:42:33.571Z,101303.41
2022-07-30T15:45:17.224Z,101306.31
2022-07-30T15:47:52.037Z,101301.22
2022-07-30T15:50:21.353Z,101299.75
2022-07-30T15:52:50.963Z,101303.50
2022-07-30T15:55:20.106Z,101301.22
2022-07-30T15:57:51.385Z,101299.75
2022-07-30T16:00:20.157Z,101306.94
2022-07-30T16:02:48.964Z,101309.31
2022-07-30T16:05:18.333Z,101304.25
2022-07-30T16:07:47.985Z,101310.72
2022-07-30T16:10:17.135Z,101311.34
2022-07-30T16:12:45.956Z,101304.00
2022-07-30T16:15:16.442Z,101303.41
2022-07-30T16:17:45.459Z,101301.06
2022-07-30T16:20:14.203Z,101308.94
2022-07-30T16:22:43.225Z,101306.81
2022-07-30T16:25:13.763Z,101315.09
2022-07-30T16:27:42.783Z,101311.72
2022-07-30T16:30:13.484Z,101314.38
2022-07-30T16:32:43.777Z,101309.91
2022-07-30T16:35:13.405Z,101312.19
2022-07-30T16:37:43.223Z,101317.66
2022-07-30T16:40:13.959Z,101314.34
2022-07-30T16:42:43.526Z,101315.69
2022-07-30T16:45:14.161Z,101315.38
2022-07-30T16:47:44.776Z,101313.13
2022-07-30T16:50:13.633Z,101317.25
2022-07-30T16:52:42.892Z,101314.22
2022-07-30T16:55:12.284Z,101310.47
2022-07-30T16:57:41.015Z,101309.44
2022-07-30T17:00:13.084Z,101318.44
2022-07-30T17:02:45.669Z,101305.19
2022-07-30T17:05:14.480Z,101308.44
2022-07-30T17:07:44.314Z,101304.81
2022-07-30T17:10:13.679Z,101304.72
2022-07-30T17:12:50.952Z,101302.97
2022-07-30T17:15:20.270Z,101310.50
2022-07-30T17:18:03.526Z,101301.81
2022-07-30T17:20:34.420Z,101309.53
2022-07-30T17:23:03.966Z,101306.38
2022-07-30T17:25:34.110Z,101310.75
2022-07-30T17:28:03.391Z,101298.09
2022-07-30T17:30:33.044Z,101307.31
2022-07-30T17:33:06.367Z,101311.13
2022-07-30T17:35:35.675Z,101304.81
2022-07-30T17:38:04.929Z,101306.00
2022-07-30T17:40:33.866Z,101308.66
2022-07-30T17:43:07.899Z,101316.81
2022-07-30T17:45:37.980Z,101312.72
2022-07-30T17:48:10.545Z,101306.59
2022-07-30T17:50:40.169Z,101311.16
2022-07-30T17:53:11.672Z,101308.66
2022-07-30T17:55:41.205Z,101319.16
2022-07-30T17:58:27.317Z,101317.31
2022-07-30T18:00:57.731Z,101330.28
2022-07-30T18:03:28.556Z,101327.66
2022-07-30T18:05:57.866Z,101331.69
2022-07-30T18:08:29.501Z,101334.66
2022-07-30T18:10:58.584Z,101331.38
2022-07-30T18:13:28.811Z,101342.41
2022-07-30T18:15:58.353Z,101339.72
2022-07-30T18:18:28.698Z,101336.84
2022-07-30T18:20:58.030Z,101342.38
2022-07-30T18:23:32.453Z,101346.03
2022-07-30T18:26:08.214Z,101349.72
2022-07-30T18:28:42.572Z,101358.59
2022-07-30T18:31:11.698Z,101358.81
2022-07-30T18:33:41.924Z,101360.03
2022-07-30T18:36:12.115Z,101364.16
2022-07-30T18:38:40.933Z,101362.00
2022-07-30T18:41:09.846Z,101362.13
2022-07-30T18:43:47.769Z,101364.97
2022-07-30T18:46:18.308Z,101363.78
2022-07-30T18:48:49.365Z,101369.38
2022-07-30T18:51:18.867Z,101375.00
2022-07-30T18:53:48.006Z,101373.72
2022-07-30T18:56:17.219Z,101372.78
2022-07-30T18:58:47.482Z,101386.69
2022-07-30T19:01:19.421Z,101390.16
2022-07-30T19:03:50.167Z,101388.69
2022-07-30T19:06:21.611Z,101392.50
2022-07-30T19:08:50.591Z,101389.78
2022-07-30T19:11:19.684Z,101395.94
2022-07-30T19:13:48.481Z,101393.72
2022-07-30T19:16:18.781Z,101392.38
2022-07-30T19:18:49.680Z,101398.38
2022-07-30T19:21:18.728Z,101396.00
2022-07-30T19:23:48.716Z,101393.81
2022-07-30T19:26:19.199Z,101393.63
2022-07-30T19:28:48.269Z,101395.50
2022-07-30T19:31:20.996Z,101402.25
2022-07-30T19:33:52.029Z,101405.13
2022-07-30T19:36:21.953Z,101404.78
2022-07-30T19:38:52.184Z,101404.78
2022-07-30T19:41:22.119Z,101408.19
2022-07-30T19:43:55.673Z,101414.31
2022-07-30T19:46:28.943Z,101422.69
2022-07-30T19:49:07.781Z,101419.09
2022-07-30T19:52:09.917Z,101423.84
2022-07-30T19:54:28.187Z,101420.44
2022-07-30T19:56:57.238Z,101416.66
2022-07-30T19:59:45.741Z,101424.13
2022-07-30T20:02:16.356Z,101421.19
2022-07-30T20:04:50.244Z,101413.31
2022-07-30T20:07:19.979Z,101412.03
2022-07-30T20:09:49.986Z,101410.59
2022-07-30T20:12:24.237Z,101416.31
2022-07-30T20:14:54.198Z,101413.16
2022-07-30T20:17:27.493Z,101413.09
2022-07-30T20:19:59.502Z,101410.31
2022-07-30T20:22:29.231Z,101413.00
2022-07-30T20:25:02.848Z,101407.13
2022-07-30T20:27:45.782Z,101411.47
2022-07-30T20:30:25.031Z,101412.81
2022-07-30T20:32:54.521Z,101416.16
2022-07-30T20:35:28.106Z,101413.81
2022-07-30T20:37:58.210Z,101418.91
2022-07-30T20:40:28.230Z,101418.75
2022-07-30T20:42:57.086Z,101421.00
2022-07-30T20:45:37.763Z,101425.16
2022-07-30T20:48:17.309Z,101421.88
2022-07-30T20:50:55.613Z,101419.63
2022-07-30T20:53:25.791Z,101410.03
2022-07-30T20:56:09.564Z,101418.56
2022-07-30T20:58:39.863Z,101417.50
2022-07-30T21:01:15.403Z,101419.84
2022-07-30T21:03:48.848Z,101429.81
2022-07-30T21:06:19.849Z,101427.69
2022-07-30T21:08:51.545Z,101422.91
2022-07-30T21:11:27.117Z,101423.22
2022-07-30T21:13:57.494Z,101417.97
2022-07-30T21:16:31.826Z,101420.09
2022-07-30T21:19:00.899Z,101417.84
2022-07-30T21:21:41.633Z,101416.56
2022-07-30T21:24:19.489Z,101415.84
2022-07-30T21:26:50.359Z,101414.00
2022-07-30T21:29:21.548Z,101415.00
2022-07-30T21:32:01.817Z,101413.72
2022-07-30T21:34:40.409Z,101410.75
2022-07-30T21:37:15.594Z,101417.72
2022-07-30T21:39:45.102Z,101411.88
2022-07-30T21:42:14.145Z,101418.19
2022-07-30T21:44:46.257Z,101416.03
2022-07-30T21:47:15.324Z,101416.91
2022-07-30T21:49:45.046Z,101421.88
2022-07-30T21:52:16.095Z,101427.00
2022-07-30T21:54:50.445Z,101419.56
2022-07-30T21:57:26.429Z,101425.16
2022-07-30T21:59:59.442Z,101424.97
2022-07-30T22:02:29.560Z,101418.72
2022-07-30T22:04:59.142Z,101427.00
2022-07-30T22:07:29.421Z,101423.56
2022-07-30T22:09:58.579Z,101426.41
2022-07-30T22:12:29.201Z,101421.72
2022-07-30T22:15:00.937Z,101426.69
2022-07-30T22:17:37.426Z,101423.13
2022-07-30T22:20:20.732Z,101418.88
2022-07-30T22:22:52.281Z,101421.97
2022-07-30T22:25:22.243Z,101421.13
2022-07-30T22:27:56.118Z,101414.59
2022-07-30T22:30:45.247Z,101415.00
2022-07-30T22:33:19.737Z,101414.00
2022-07-30T22:35:51.508Z,101411.44
2022-07-30T22:38:21.770Z,101408.44
2022-07-30T22:40:51.691Z,101409.13
2022-07-30T22:43:21.631Z,101411.53
2022-07-30T22:45:51.090Z,101413.81
2022-07-30T22:48:25.344Z,101413.50
2022-07-30T22:50:55.303Z,101406.34
2022-07-30T22:56:15.709Z,101402.53
2022-07-30T22:58:48.654Z,101407.53
2022-07-30T23:01:18.492Z,101408.63
2022-07-30T23:03:48.190Z,101396.84
2022-07-30T23:06:16.935Z,101391.00
2022-07-30T23:08:51.912Z,101389.09
2022-07-30T23:11:22.273Z,101376.72
2022-07-30T23:12:30.760Z,101405.50
2022-07-30T23:13:59.679Z,101386.38
2022-07-30T23:16:28.840Z,101378.53
2022-07-30T23:18:58.989Z,101377.22
2022-07-30T23:21:29.705Z,101374.09
2022-07-30T23:24:01.418Z,101371.16
2022-07-30T23:26:30.817Z,101368.31
2022-07-30T23:29:00.850Z,101366.28
2022-07-30T23:31:29.895Z,101374.91
2022-07-30T23:33:58.986Z,101374.19
2022-07-30T23:36:28.625Z,101371.81
2022-07-30T23:38:59.985Z,101371.38
2022-07-30T23:41:30.759Z,101372.13
2022-07-30T23:44:00.106Z,101371.69
2022-07-30T23:46:28.814Z,101373.09
2022-07-30T23:48:59.337Z,101365.91
2022-07-30T23:51:33.316Z,101365.75
2022-07-30T23:54:04.753Z,101371.31
2022-07-30T23:56:34.436Z,101368.31
2022-07-30T23:59:03.482Z,101368.00
